Time;durP1;ratioP1;P1;durP2;ratioP2;P2;SDS_P1;SDS_P2;PMS_P1;PMS_P2;Temp;Humidity;BMP_temperature;BMP_pressure;BME280_temperature;BME280_humidity;BME280_pressure;Samples;Min_cycle;Max_cycle;Signal;HPM_P1;HPM_P2
2021/01/28 00:00:43;;;;;;;10.43;6.00;;;;;;;-0.82;60.37;93911.84;5153557;27;20180;-81
2021/01/28 00:03:10;;;;;;;12.83;6.73;;;;;;;-0.76;61.41;93915.13;5153839;27;20207;-80
2021/01/28 00:05:37;;;;;;;9.13;6.18;;;;;;;-0.61;59.34;93927.13;5153617;27;20564;-82
2021/01/28 00:08:03;;;;;;;10.05;6.13;;;;;;;-0.65;62.50;93928.78;5153295;27;20172;-80
2021/01/28 00:10:29;;;;;;;6.93;5.22;;;;;;;-0.64;60.08;93927.72;5153477;27;20176;-80
2021/01/28 00:12:55;;;;;;;8.47;5.67;;;;;;;-0.68;59.07;93934.63;5153938;27;20260;-81
2021/01/28 00:15:23;;;;;;;9.13;5.95;;;;;;;-0.56;58.14;93937.50;5134928;27;20227;-79
2021/01/28 00:17:49;;;;;;;9.35;5.72;;;;;;;-0.78;59.27;93929.63;5153570;27;20177;-83
2021/01/28 00:20:24;;;;;;;10.47;5.43;;;;;;;-0.65;58.14;93936.66;5153649;27;20232;-81
2021/01/28 00:22:49;;;;;;;8.80;5.88;;;;;;;-0.42;58.69;93940.06;5153422;27;20168;-81
2021/01/28 00:25:16;;;;;;;8.37;5.33;;;;;;;-0.51;58.48;93941.81;5153729;27;20175;-82
2021/01/28 00:27:42;;;;;;;12.05;6.20;;;;;;;-0.49;58.59;93935.22;5135143;27;20258;-82
2021/01/28 00:30:10;;;;;;;8.70;5.47;;;;;;;-0.72;59.84;93931.81;5153561;27;20169;-80
2021/01/28 00:32:35;;;;;;;6.85;5.70;;;;;;;-0.62;59.58;93934.22;5153108;27;20178;-81
2021/01/28 00:35:01;;;;;;;9.37;6.03;;;;;;;-0.66;60.08;93942.97;5153533;27;20168;-79
2021/01/28 00:37:26;;;;;;;8.80;5.27;;;;;;;-0.56;59.10;93938.28;5153052;27;20712;-82
2021/01/28 00:39:52;;;;;;;9.27;5.70;;;;;;;-0.77;58.22;93910.19;5153173;27;20172;-81
2021/01/28 00:42:17;;;;;;;7.53;5.27;;;;;;;-0.61;58.47;93932.38;5153497;27;20169;-81
2021/01/28 00:44:43;;;;;;;7.83;5.67;;;;;;;-0.60;58.37;93928.66;5153371;27;20175;-80
2021/01/28 00:47:08;;;;;;;8.00;5.30;;;;;;;-0.72;58.20;93933.69;5153138;27;20168;-79
2021/01/28 00:49:34;;;;;;;9.80;5.63;;;;;;;-0.96;59.42;93934.69;5153321;27;20255;-81
2021/01/28 00:51:59;;;;;;;10.00;6.33;;;;;;;-0.71;59.58;93938.63;5153466;27;20164;-82
2021/01/28 00:54:25;;;;;;;7.43;5.60;;;;;;;-0.75;58.80;93908.81;5135987;27;20183;-80
2021/01/28 00:56:50;;;;;;;12.13;5.50;;;;;;;-0.51;60.33;93939.97;5154550;27;20200;-82
2021/01/28 00:59:16;;;;;;;8.52;4.47;;;;;;;-0.78;58.92;93940.88;5153965;27;20168;-81
2021/01/28 01:01:42;;;;;;;10.73;6.60;;;;;;;-0.75;59.96;93937.66;5153985;27;20171;-82
2021/01/28 01:04:07;;;;;;;9.37;5.80;;;;;;;-0.51;59.54;93939.97;5157971;27;20222;-81
2021/01/28 01:06:33;;;;;;;9.57;5.90;;;;;;;-0.46;59.19;93926.75;5155096;27;20200;-80
2021/01/28 01:08:59;;;;;;;8.40;5.77;;;;;;;-0.81;59.15;93908.16;5153689;27;20179;-82
2021/01/28 01:11:25;;;;;;;7.67;5.77;;;;;;;-0.64;58.66;93936.34;5153430;27;20172;-78
2021/01/28 01:13:50;;;;;;;9.93;5.50;;;;;;;-0.55;59.73;93939.81;5153563;27;20256;-77
2021/01/28 01:16:18;;;;;;;9.33;5.47;;;;;;;-0.48;61.50;93931.53;5152936;27;20278;-82
2021/01/28 01:18:43;;;;;;;7.15;5.25;;;;;;;-0.71;61.26;93906.38;5154554;27;20241;-81
2021/01/28 01:21:09;;;;;;;7.53;5.70;;;;;;;-0.80;59.44;93922.81;5157587;27;20176;-79
2021/01/28 01:23:35;;;;;;;8.50;6.07;;;;;;;-0.67;59.00;93883.75;5138643;27;20188;-83
2021/01/28 01:26:01;;;;;;;9.23;5.60;;;;;;;-0.31;59.08;93917.75;5157372;27;20171;-81
2021/01/28 01:28:27;;;;;;;9.17;5.37;;;;;;;-0.53;58.26;93910.66;5157955;27;20544;-82
2021/01/28 01:30:53;;;;;;;8.73;6.03;;;;;;;-0.53;61.21;93926.41;5157721;27;20168;-79
2021/01/28 01:33:18;;;;;;;9.80;5.90;;;;;;;-0.51;59.59;93921.63;5157563;27;20656;-81
2021/01/28 01:35:44;;;;;;;7.77;6.33;;;;;;;-0.75;60.20;93915.91;5157298;27;20192;-81
2021/01/28 01:38:09;;;;;;;11.37;6.33;;;;;;;-0.42;60.33;93919.06;5157742;27;20220;-83
2021/01/28 01:40:38;;;;;;;11.33;5.90;;;;;;;-0.54;60.58;93907.28;5157521;27;20169;-83
2021/01/28 01:43:04;;;;;;;9.45;6.05;;;;;;;-0.39;60.03;93908.78;5156851;27;20236;-83
2021/01/28 01:45:31;;;;;;;7.80;5.93;;;;;;;-0.35;60.57;93920.19;5139138;27;20663;-82
2021/01/28 01:48:19;;;;;;;10.88;6.25;;;;;;;-0.36;60.89;93921.25;5159517;27;20175;-80
2021/01/28 01:50:55;;;;;;;9.02;6.28;;;;;;;-0.42;61.13;93919.06;5164067;27;20232;-81
2021/01/28 01:53:32;;;;;;;7.97;4.78;;;;;;;-0.68;57.35;93911.78;5166559;27;20172;-80
2021/01/28 01:56:18;;;;;;;8.05;5.28;;;;;;;-0.62;59.50;93923.72;5160946;27;20268;-81
2021/01/28 01:59:01;;;;;;;7.57;5.40;;;;;;;-0.48;60.11;93923.66;5157277;27;20175;-81
2021/01/28 02:01:27;;;;;;;7.03;5.65;;;;;;;-0.48;60.80;93925.50;5138352;27;20611;-81
2021/01/28 02:03:53;;;;;;;9.10;5.82;;;;;;;-0.37;59.55;93932.06;5138857;27;20724;-80
2021/01/28 02:06:26;;;;;;;7.93;5.27;;;;;;;-0.73;60.44;93939.97;5155688;27;20168;-80
2021/01/28 02:08:55;;;;;;;8.20;4.95;;;;;;;-0.47;60.41;93935.69;5138287;27;20164;-80
2021/01/28 02:11:21;;;;;;;9.15;5.30;;;;;;;-0.43;60.53;93941.13;5137989;27;20217;-80
2021/01/28 02:13:47;;;;;;;8.83;5.17;;;;;;;-0.37;60.65;93935.47;5137871;27;20607;-80
2021/01/28 02:16:13;;;;;;;10.10;5.60;;;;;;;-0.44;60.54;93940.34;5155281;27;20196;-81
2021/01/28 02:18:39;;;;;;;8.43;5.25;;;;;;;-0.57;60.48;93934.06;5156967;27;20172;-81
2021/01/28 02:21:24;;;;;;;8.10;5.63;;;;;;;-0.42;60.90;93953.16;5156671;27;20197;-79
2021/01/28 02:24:27;;;;;;;8.40;5.82;;;;;;;-0.30;59.41;93942.91;5156319;27;20171;-81
2021/01/28 02:26:53;;;;;;;7.13;5.93;;;;;;;-0.59;59.65;93924.97;5153219;27;26718;-79
2021/01/28 02:29:20;;;;;;;8.90;5.50;;;;;;;-0.60;59.25;93929.44;5155168;27;20188;-81
2021/01/28 02:31:46;;;;;;;7.47;5.40;;;;;;;-0.50;60.32;93946.03;5154429;27;20247;-80
2021/01/28 02:34:12;;;;;;;10.25;6.03;;;;;;;-0.83;59.96;93948.84;5154863;27;20182;-80
2021/01/28 02:36:48;;;;;;;7.93;5.60;;;;;;;-0.61;59.63;93946.25;5156938;27;20200;-80
2021/01/28 02:39:17;;;;;;;9.35;5.30;;;;;;;-0.90;60.31;93914.41;5155354;27;20216;-78
2021/01/28 02:41:42;;;;;;;8.88;5.72;;;;;;;-0.87;60.38;93930.31;5155691;27;20259;-81
2021/01/28 02:44:08;;;;;;;8.97;5.77;;;;;;;-0.47;59.82;93951.44;5154433;27;20169;-80
2021/01/28 02:46:34;;;;;;;8.20;5.40;;;;;;;-0.51;59.51;93953.09;5155666;27;20618;-79
2021/01/28 02:48:59;;;;;;;8.80;6.23;;;;;;;-0.57;59.97;93951.66;5155111;27;20560;-79
2021/01/28 02:51:25;;;;;;;7.43;5.53;;;;;;;-0.31;59.00;93954.47;5137007;27;20196;-78
2021/01/28 02:53:54;;;;;;;9.53;5.60;;;;;;;-0.69;58.60;93951.41;5156953;27;20164;-78
2021/01/28 02:56:20;;;;;;;9.13;5.35;;;;;;;-0.50;58.51;93956.50;5154251;27;20270;-80
2021/01/28 02:58:47;;;;;;;8.55;5.43;;;;;;;-0.65;58.21;93955.78;5156022;27;20176;-80
2021/01/28 03:01:13;;;;;;;8.18;5.63;;;;;;;-0.59;58.49;93940.72;5155537;27;20192;-81
2021/01/28 03:03:38;;;;;;;6.17;5.00;;;;;;;-0.52;59.70;93963.88;5120509;27;20675;-82
2021/01/28 03:06:05;;;;;;;8.40;5.53;;;;;;;-0.53;58.46;93960.50;5155911;27;20183;-81
2021/01/28 03:08:31;;;;;;;10.23;5.63;;;;;;;-0.74;57.59;93946.28;5155929;27;20165;-80
2021/01/28 03:10:56;;;;;;;10.63;6.17;;;;;;;-0.49;58.53;93950.97;5158309;27;20223;-78
2021/01/28 03:13:22;;;;;;;8.07;5.20;;;;;;;-0.67;59.39;93929.09;5155371;27;20823;-79
2021/01/28 03:15:48;;;;;;;8.75;5.40;;;;;;;-0.61;58.85;93955.97;5155813;27;20680;-80
2021/01/28 03:18:14;;;;;;;7.77;5.53;;;;;;;-0.40;59.00;93958.88;5155382;27;20176;-79
2021/01/28 03:20:39;;;;;;;8.50;5.87;;;;;;;-0.56;60.50;93958.47;5155842;27;20591;-80
2021/01/28 03:23:05;;;;;;;11.43;5.70;;;;;;;-0.54;59.60;93946.59;5155664;27;20172;-82
2021/01/28 03:25:31;;;;;;;8.23;5.50;;;;;;;-0.54;59.98;93943.22;5155867;27;20171;-82
2021/01/28 03:27:57;;;;;;;6.50;4.97;;;;;;;-0.54;59.51;93933.50;5155183;27;20644;-81
2021/01/28 03:30:23;;;;;;;10.43;5.07;;;;;;;-0.52;60.52;93945.53;5155472;27;20514;-81
2021/01/28 03:32:49;;;;;;;8.30;5.65;;;;;;;-0.85;60.68;93930.78;5155052;27;20164;-82
2021/01/28 03:35:15;;;;;;;7.43;5.57;;;;;;;-0.68;60.51;93947.72;5156352;27;20171;-81
2021/01/28 03:37:41;;;;;;;9.85;5.13;;;;;;;-0.67;60.74;93944.06;5155163;27;20292;-80
2021/01/28 03:40:07;;;;;;;9.53;6.03;;;;;;;-0.63;59.63;93942.38;5154514;27;20180;-81
2021/01/28 03:42:32;;;;;;;8.20;5.73;;;;;;;-0.59;59.45;93940.72;5154028;27;20204;-81
2021/01/28 03:44:58;;;;;;;6.47;5.07;;;;;;;-0.83;60.64;93935.75;5154256;27;20268;-81
2021/01/28 03:47:24;;;;;;;7.07;4.93;;;;;;;-0.91;60.15;93937.22;5155040;27;20176;-83
2021/01/28 03:49:50;;;;;;;7.97;5.38;;;;;;;-0.84;60.05;93937.59;5154733;27;20176;-80
2021/01/28 03:52:15;;;;;;;7.93;5.23;;;;;;;-0.80;59.90;93930.66;5154502;27;20534;-80
2021/01/28 03:54:41;;;;;;;6.93;5.50;;;;;;;-0.70;59.87;93926.28;5154777;27;20195;-79
2021/01/28 03:57:07;;;;;;;7.47;5.23;;;;;;;-0.71;59.85;93927.34;5155212;27;20204;-82
2021/01/28 03:59:32;;;;;;;7.00;5.70;;;;;;;-0.71;60.32;93933.38;5155049;27;20176;-78
2021/01/28 04:01:58;;;;;;;6.30;5.07;;;;;;;-0.52;59.37;93933.19;5154371;27;20716;-80
2021/01/28 04:04:23;;;;;;;7.07;5.10;;;;;;;-0.60;59.92;93932.06;5134982;27;20184;-80
2021/01/28 04:06:49;;;;;;;7.63;5.53;;;;;;;-0.60;59.62;93926.81;5154172;27;20183;-79
2021/01/28 04:09:14;;;;;;;7.57;5.77;;;;;;;-0.69;60.97;93923.34;5154725;27;20164;-78
2021/01/28 04:11:40;;;;;;;8.97;5.27;;;;;;;-0.80;60.91;93928.03;5154600;27;20227;-77
2021/01/28 04:14:05;;;;;;;9.17;5.83;;;;;;;-1.04;60.56;93922.31;5154582;27;20245;-79
2021/01/28 04:16:31;;;;;;;8.50;5.57;;;;;;;-0.85;60.02;93925.53;5154604;27;20200;-81
2021/01/28 04:18:56;;;;;;;11.37;5.77;;;;;;;-0.78;61.90;93938.25;5154595;27;20173;-80
2021/01/28 04:21:22;;;;;;;7.70;5.50;;;;;;;-0.87;62.06;93948.66;5154376;27;20164;-82
2021/01/28 04:23:47;;;;;;;7.20;5.70;;;;;;;-0.83;61.12;93948.84;5154807;27;20161;-81
2021/01/28 04:26:13;;;;;;;9.07;6.10;;;;;;;-0.82;61.73;93947.78;5154337;27;20172;-81
2021/01/28 04:28:39;;;;;;;8.90;5.60;;;;;;;-0.69;62.51;93951.41;5154145;27;20277;-78
2021/01/28 04:31:05;;;;;;;9.57;6.13;;;;;;;-0.78;61.80;93951.38;5154366;27;20305;-79
2021/01/28 04:33:31;;;;;;;8.65;5.78;;;;;;;-0.72;61.17;93950.19;5154543;27;20645;-81
2021/01/28 04:35:56;;;;;;;6.40;5.30;;;;;;;-0.76;60.94;93943.97;5154275;27;20199;-82
2021/01/28 04:38:21;;;;;;;9.43;5.53;;;;;;;-0.89;62.31;93953.44;5153901;27;20212;-80
2021/01/28 04:41:06;;;;;;;6.73;5.30;;;;;;;-1.05;62.99;93961.91;5154082;27;20169;-79
2021/01/28 04:43:32;;;;;;;9.27;5.85;;;;;;;-0.94;62.83;93953.53;5152943;27;20680;-81
2021/01/28 04:46:01;;;;;;;8.00;5.43;;;;;;;-1.11;62.82;93958.63;5152959;27;20183;-80
2021/01/28 04:48:28;;;;;;;7.97;5.97;;;;;;;-0.84;62.49;93945.47;5153153;27;20168;-80
2021/01/28 04:51:04;;;;;;;12.02;7.63;;;;;;;-1.10;63.18;93957.53;5154767;27;20172;-79
2021/01/28 04:53:52;;;;;;;10.50;6.18;;;;;;;-0.90;62.62;93964.19;5155138;27;20636;-76
2021/01/28 04:56:24;;;;;;;9.23;6.00;;;;;;;-0.81;63.16;93967.66;5156846;27;20203;-77
2021/01/28 04:59:23;;;;;;;8.10;5.50;;;;;;;-0.81;63.31;93965.81;5139776;27;20234;-75
2021/01/28 05:01:50;;;;;;;9.23;6.10;;;;;;;-0.74;63.21;93968.03;5060653;28;20190;-78
2021/01/28 05:04:17;;;;;;;8.05;6.18;;;;;;;-0.97;63.00;93969.84;5095102;28;20174;-77
2021/01/28 05:06:42;;;;;;;7.70;6.03;;;;;;;-0.92;64.79;93955.84;5099113;28;20178;-78
2021/01/28 05:09:08;;;;;;;8.13;6.00;;;;;;;-0.78;64.41;93980.19;5083377;28;20177;-76
2021/01/28 05:11:35;;;;;;;8.97;6.30;;;;;;;-0.67;63.69;93984.16;5093954;28;20181;-77
2021/01/28 05:14:22;;;;;;;11.52;6.28;;;;;;;-0.87;63.28;93958.38;5077849;28;20210;-78
2021/01/28 05:16:49;;;;;;;9.02;6.10;;;;;;;-0.72;63.23;93973.00;5077251;28;20230;-77
2021/01/28 05:19:32;;;;;;;8.07;6.07;;;;;;;-0.62;63.68;93983.25;5060656;28;20178;-79
2021/01/28 05:22:30;;;;;;;8.20;5.38;;;;;;;-0.84;63.27;93989.25;5077661;28;20608;-78
2021/01/28 05:25:00;;;;;;;10.13;6.50;;;;;;;-0.82;63.48;93994.97;5059648;28;20186;-78
2021/01/28 05:27:30;;;;;;;10.18;6.97;;;;;;;-0.81;63.65;93989.41;5094287;28;20179;-79
2021/01/28 05:29:57;;;;;;;8.80;6.63;;;;;;;-0.81;62.69;93981.56;5077135;28;20197;-77
2021/01/28 05:32:39;;;;;;;8.45;5.57;;;;;;;-0.82;63.03;93998.34;5093686;28;20220;-78
2021/01/28 05:35:21;;;;;;;9.73;6.65;;;;;;;-0.65;62.58;94007.44;5093664;28;20671;-78
2021/01/28 05:37:47;;;;;;;9.88;5.88;;;;;;;-0.93;63.04;94014.59;5083053;27;20244;-78
2021/01/28 05:40:13;;;;;;;9.07;6.30;;;;;;;-0.81;63.18;94014.84;5116085;28;20174;-77
2021/01/28 05:42:40;;;;;;;8.10;6.23;;;;;;;-0.92;63.45;94016.13;5116046;28;20252;-78
2021/01/28 05:45:27;;;;;;;10.45;6.03;;;;;;;-0.96;62.83;94017.78;5115983;28;20161;-78
2021/01/28 05:47:53;;;;;;;10.20;5.97;;;;;;;-0.89;61.93;94013.72;5115723;28;20170;-78
2021/01/28 05:50:29;;;;;;;9.70;5.67;;;;;;;-0.96;62.67;94023.78;5114709;28;20180;-77
2021/01/28 05:53:30;;;;;;;8.20;5.35;;;;;;;-1.01;61.77;94029.16;5130824;27;20165;-78
2021/01/28 05:55:56;;;;;;;6.90;5.43;;;;;;;-0.88;62.27;94028.34;5114676;28;20209;-79
2021/01/28 05:58:32;;;;;;;8.18;5.90;;;;;;;-1.00;61.93;94025.47;5114340;28;20177;-77
2021/01/28 06:01:14;;;;;;;7.00;5.03;;;;;;;-0.79;61.60;94025.81;5115784;28;20165;-76
2021/01/28 06:03:55;;;;;;;7.88;5.15;;;;;;;-0.85;61.07;94029.59;5130256;27;20559;-76
2021/01/28 06:06:38;;;;;;;12.70;5.90;;;;;;;-0.69;62.52;94027.44;5114428;28;20535;-78
2021/01/28 06:09:22;;;;;;;6.70;5.43;;;;;;;-0.59;61.75;94032.47;5115406;28;20278;-79
2021/01/28 06:12:00;;;;;;;8.63;5.72;;;;;;;-0.70;61.72;94028.53;5115969;28;20177;-78
2021/01/28 06:15:04;;;;;;;7.32;5.07;;;;;;;-0.84;60.61;94025.94;5117755;28;20197;-78
2021/01/28 06:17:55;;;;;;;13.27;5.63;;;;;;;-0.73;60.59;94031.72;5115094;28;20571;-77
2021/01/28 06:20:27;;;;;;;8.25;5.47;;;;;;;-0.65;61.76;94034.44;5128691;27;20196;-77
2021/01/28 06:23:19;;;;;;;9.07;5.43;;;;;;;-1.05;61.86;94033.44;5113864;28;20170;-77
2021/01/28 06:26:05;;;;;;;7.95;5.43;;;;;;;-0.76;62.19;94040.97;5131023;27;20170;-78
2021/01/28 06:28:45;;;;;;;8.32;5.25;;;;;;;-0.61;60.92;94032.78;5115567;28;20200;-77
2021/01/28 06:31:17;;;;;;;9.93;5.93;;;;;;;-0.74;60.08;94032.78;5113574;28;20170;-78
2021/01/28 06:33:50;;;;;;;10.48;6.50;;;;;;;-0.78;61.15;94032.63;5114807;28;20193;-75
2021/01/28 06:36:35;;;;;;;9.23;5.53;;;;;;;-0.66;60.49;94029.50;5113020;28;20208;-76
2021/01/28 06:39:16;;;;;;;7.82;5.68;;;;;;;-0.50;60.23;94035.97;5127276;27;20212;-78
2021/01/28 06:41:47;;;;;;;7.75;5.25;;;;;;;-0.97;59.30;94005.75;5134603;27;20169;-76
2021/01/28 06:44:15;;;;;;;8.60;5.32;;;;;;;-0.79;60.97;94044.16;5116396;27;20161;-78
2021/01/28 06:46:54;;;;;;;7.93;5.95;;;;;;;-0.74;60.74;94043.28;5133525;27;20165;-76
2021/01/28 06:49:51;;;;;;;8.38;5.80;;;;;;;-0.58;60.09;94042.66;5133161;27;20169;-77
2021/01/28 06:52:44;;;;;;;8.73;6.00;;;;;;;-0.40;60.71;94040.97;5132830;27;20673;-78
2021/01/28 06:55:21;;;;;;;10.88;5.88;;;;;;;-0.46;60.58;94046.63;5134115;27;20173;-78
2021/01/28 06:58:08;;;;;;;7.28;5.53;;;;;;;-0.61;59.29;94040.66;5132980;27;20715;-76
2021/01/28 07:00:39;;;;;;;6.65;5.13;;;;;;;-0.41;59.07;94043.88;5134213;27;20169;-77
2021/01/28 07:03:14;;;;;;;6.78;5.03;;;;;;;-0.63;58.01;94044.63;5116470;27;20207;-76
2021/01/28 07:06:21;;;;;;;8.32;5.63;;;;;;;-0.36;58.62;94047.19;5132635;27;20225;-78
2021/01/28 07:09:17;;;;;;;7.03;4.80;;;;;;;-0.32;59.23;94060.47;5133037;27;20232;-77
2021/01/28 07:11:43;;;;;;;6.32;4.70;;;;;;;-0.22;59.47;94059.50;5130932;27;20176;-77
2021/01/28 07:14:12;;;;;;;6.38;5.22;;;;;;;-0.25;58.54;94049.56;5133609;27;20544;-78
2021/01/28 07:16:58;;;;;;;7.70;5.30;;;;;;;-0.18;58.41;94055.94;5115464;27;20204;-77
2021/01/28 07:19:50;;;;;;;7.15;5.18;;;;;;;-0.26;58.54;94061.91;5133017;27;20165;-77
2021/01/28 07:22:32;;;;;;;7.35;4.68;;;;;;;-0.18;58.64;94063.06;5132234;27;20173;-77
2021/01/28 07:25:29;;;;;;;11.02;5.30;;;;;;;-0.18;58.06;94052.56;5115518;27;20661;-77
2021/01/28 07:28:00;;;;;;;7.18;4.65;;;;;;;0.00;58.19;94064.75;5133395;27;20176;-76
2021/01/28 07:30:33;;;;;;;6.40;4.97;;;;;;;0.05;57.94;94064.59;5136402;27;20191;-77
2021/01/28 07:32:59;;;;;;;7.43;5.10;;;;;;;0.06;57.99;94070.63;5131838;27;20177;-78
2021/01/28 07:35:24;;;;;;;7.37;5.17;;;;;;;0.04;58.25;94076.19;5133283;27;20172;-77
2021/01/28 07:37:53;;;;;;;8.13;5.00;;;;;;;0.08;58.32;94071.13;5137154;27;20799;-76
2021/01/28 07:41:15;;;;;;;7.10;4.88;;;;;;;0.03;58.30;94072.00;5153922;27;20637;-76
2021/01/28 07:43:43;;;;;;;15.68;6.07;;;;;;;0.11;57.17;94066.03;5153908;27;20620;-78
2021/01/28 07:46:18;;;;;;;7.40;5.00;;;;;;;0.28;57.30;94065.38;5153647;27;20176;-77
2021/01/28 07:48:47;;;;;;;10.30;6.13;;;;;;;0.20;57.83;94066.09;5154294;27;20164;-77
2021/01/28 07:51:34;;;;;;;9.73;6.40;;;;;;;0.21;59.52;94068.44;5154488;27;20196;-77
2021/01/28 07:54:01;;;;;;;7.50;5.25;;;;;;;0.43;58.68;94067.63;5153862;27;20714;-77
2021/01/28 07:56:35;;;;;;;13.10;6.50;;;;;;;0.33;57.83;94069.72;5153634;27;20751;-78
2021/01/28 07:59:15;;;;;;;17.73;6.28;;;;;;;0.21;57.46;94068.44;5153386;27;20175;-77
2021/01/28 08:01:41;;;;;;;7.63;5.70;;;;;;;0.32;57.80;94068.19;5152814;27;20172;-77
2021/01/28 08:04:33;;;;;;;25.95;7.65;;;;;;;0.37;58.18;94075.94;5153657;27;20645;-77
2021/01/28 08:06:59;;;;;;;15.27;6.20;;;;;;;0.52;57.79;94068.47;5153803;27;20648;-78
2021/01/28 08:09:25;;;;;;;20.57;6.97;;;;;;;0.15;56.96;94027.63;5153552;27;20164;-78
2021/01/28 08:11:52;;;;;;;8.80;5.27;;;;;;;0.50;58.85;94075.84;5134993;27;20232;-79
2021/01/28 08:14:25;;;;;;;9.02;4.90;;;;;;;0.30;57.64;94065.09;5153250;27;20160;-79
2021/01/28 08:16:52;;;;;;;7.20;4.50;;;;;;;0.29;57.41;94079.31;5153369;27;20211;-79
2021/01/28 08:19:25;;;;;;;5.70;4.85;;;;;;;-0.01;56.85;94056.06;5134808;27;20180;-77
2021/01/28 08:22:24;;;;;;;8.95;5.13;;;;;;;0.05;57.95;94076.97;5154428;27;20172;-80
2021/01/28 08:24:54;;;;;;;7.30;4.82;;;;;;;0.25;57.87;94087.75;5153985;27;20747;-79
2021/01/28 08:27:28;;;;;;;8.75;5.63;;;;;;;0.19;57.94;94081.09;5153046;27;20189;-77
2021/01/28 08:30:11;;;;;;;6.80;4.57;;;;;;;0.02;57.86;94075.72;5152869;27;20654;-78
2021/01/28 08:32:37;;;;;;;12.18;5.50;;;;;;;0.13;57.80;94087.53;5151785;27;20176;-78
2021/01/28 08:35:07;;;;;;;8.97;5.40;;;;;;;0.26;58.23;94088.53;5153123;27;20297;-79
2021/01/28 08:37:36;;;;;;;8.10;5.57;;;;;;;0.25;58.07;94081.75;5133580;27;20637;-80
2021/01/28 08:40:04;;;;;;;7.93;5.18;;;;;;;0.28;57.71;94091.63;5153414;27;20196;-78
2021/01/28 08:42:29;;;;;;;9.80;5.38;;;;;;;0.18;59.39;94097.91;5153166;27;20196;-79
2021/01/28 08:45:12;;;;;;;6.90;4.87;;;;;;;0.35;59.01;94099.09;5153066;27;20168;-81
2021/01/28 08:47:37;;;;;;;8.07;5.72;;;;;;;0.29;58.95;94092.44;5152890;27;20597;-78
2021/01/28 08:50:05;;;;;;;8.97;4.87;;;;;;;0.28;59.26;94106.59;5152889;27;20207;-77
2021/01/28 08:52:30;;;;;;;9.07;6.25;;;;;;;0.43;58.40;94090.50;5152574;27;20624;-77
2021/01/28 08:54:56;;;;;;;7.73;5.57;;;;;;;0.59;58.02;94090.91;5151589;27;20172;-77
2021/01/28 08:57:22;;;;;;;7.33;5.20;;;;;;;0.82;58.52;94099.50;5152024;27;20188;-77
2021/01/28 09:00:00;;;;;;;14.48;5.97;;;;;;;0.76;58.53;94073.38;5134126;27;20167;-76
2021/01/28 09:02:31;;;;;;;9.40;4.43;;;;;;;1.00;56.93;94103.75;5151451;27;20240;-76
2021/01/28 09:05:08;;;;;;;6.05;4.35;;;;;;;1.08;57.26;94092.53;5134324;27;20201;-76
2021/01/28 09:07:59;;;;;;;6.68;4.72;;;;;;;0.90;57.94;94104.03;5152772;27;20168;-76
2021/01/28 09:10:32;;;;;;;3.92;3.28;;;;;;;0.89;56.94;94110.38;5152692;27;20172;-78
2021/01/28 09:13:33;;;;;;;8.80;3.40;;;;;;;0.98;55.01;94103.31;5134052;27;20169;-77
2021/01/28 09:16:18;;;;;;;4.15;3.22;;;;;;;0.98;56.52;94111.19;5088926;28;20247;-76
2021/01/28 09:18:48;;;;;;;4.15;3.58;;;;;;;1.20;57.22;94120.88;5071973;28;20194;-76
2021/01/28 09:21:21;;;;;;;5.50;3.75;;;;;;;1.37;57.84;94117.50;5088732;28;20182;-77
2021/01/28 09:23:56;;;;;;;8.25;5.63;;;;;;;1.43;58.79;94113.66;5089407;28;20189;-77
2021/01/28 09:26:24;;;;;;;6.50;4.00;;;;;;;1.50;57.83;94109.50;5088496;28;20265;-76
2021/01/28 09:28:50;;;;;;;7.15;3.72;;;;;;;1.55;57.69;94111.22;5088968;28;20255;-76
2021/01/28 09:31:28;;;;;;;4.60;3.43;;;;;;;1.40;57.05;94119.53;5055454;28;20187;-77
2021/01/28 09:33:53;;;;;;;7.38;3.45;;;;;;;1.14;56.43;94124.72;5088889;28;20232;-76
2021/01/28 09:36:23;;;;;;;5.27;3.90;;;;;;;1.22;55.09;94122.09;5088675;28;20210;-76
2021/01/28 09:39:19;;;;;;;7.40;3.70;;;;;;;1.18;55.98;94130.91;5071780;28;20233;-76
2021/01/28 09:41:46;;;;;;;6.45;3.75;;;;;;;0.93;57.79;94116.56;5077120;28;20186;-76
2021/01/28 09:44:28;;;;;;;6.28;4.32;;;;;;;1.08;56.52;94115.41;5092581;28;20182;-76
2021/01/28 09:47:19;;;;;;;5.07;3.40;;;;;;;0.87;57.06;94115.16;5075960;28;20204;-75
2021/01/28 09:49:46;;;;;;;8.98;3.85;;;;;;;0.79;55.94;94112.19;5118440;27;20233;-76
2021/01/28 09:52:19;;;;;;;5.53;3.65;;;;;;;0.90;54.76;94114.53;5156023;27;20172;-77
2021/01/28 09:54:54;;;;;;;4.75;3.45;;;;;;;0.87;55.96;94084.38;5156495;27;20160;-77
2021/01/28 09:57:20;;;;;;;5.72;4.07;;;;;;;0.87;58.12;94112.53;5154979;27;20238;-76
2021/01/28 09:59:46;;;;;;;9.30;3.50;;;;;;;0.75;57.93;94099.94;5155900;27;20263;-76
2021/01/28 10:02:14;;;;;;;5.90;3.97;;;;;;;0.89;57.14;94103.25;5155952;27;20244;-75
2021/01/28 10:04:41;;;;;;;4.68;3.58;;;;;;;0.96;57.48;94111.50;5137229;27;20172;-74
2021/01/28 10:07:06;;;;;;;5.45;3.70;;;;;;;0.92;56.89;94105.28;5154678;27;20224;-74
2021/01/28 10:09:32;;;;;;;4.43;3.53;;;;;;;0.97;57.30;94093.88;5155610;27;20250;-74
2021/01/28 10:11:57;;;;;;;4.90;3.43;;;;;;;1.15;56.33;94100.72;5155771;27;20169;-74
2021/01/28 10:14:23;;;;;;;6.33;4.87;;;;;;;1.20;57.99;94099.81;5154305;27;20156;-75
2021/01/28 10:16:48;;;;;;;9.47;4.30;;;;;;;1.24;57.86;94098.91;5155564;27;20192;-75
2021/01/28 10:19:14;;;;;;;7.30;4.23;;;;;;;1.28;57.63;94099.84;5155831;27;20629;-75
2021/01/28 10:21:41;;;;;;;10.37;4.53;;;;;;;1.54;56.81;94101.78;5155318;27;20180;-74
2021/01/28 10:24:06;;;;;;;5.80;4.25;;;;;;;1.53;56.41;94097.59;5154431;27;20651;-74
2021/01/28 10:26:32;;;;;;;5.40;4.23;;;;;;;1.60;56.44;94103.19;5153786;27;20172;-74
2021/01/28 10:28:57;;;;;;;6.77;4.60;;;;;;;1.61;56.17;94085.53;5134619;27;20165;-74
2021/01/28 10:31:23;;;;;;;4.57;3.63;;;;;;;1.29;56.45;94090.09;5133852;27;20172;-75
2021/01/28 10:33:48;;;;;;;4.73;3.77;;;;;;;1.19;56.11;94080.66;5134172;27;20161;-75
2021/01/28 10:36:14;;;;;;;6.30;3.80;;;;;;;1.37;58.09;94088.59;5134241;27;20666;-75
2021/01/28 10:38:40;;;;;;;4.57;3.50;;;;;;;1.35;57.73;94075.75;5133193;27;20311;-75
2021/01/28 10:41:05;;;;;;;5.75;3.58;;;;;;;1.27;57.93;94092.25;5133628;27;20177;-74
2021/01/28 10:43:31;;;;;;;4.50;3.03;;;;;;;1.20;57.36;94105.84;5115912;27;20633;-74
2021/01/28 10:45:57;;;;;;;7.47;4.17;;;;;;;1.29;57.80;94101.41;5097685;28;20193;-74
2021/01/28 10:48:23;;;;;;;5.15;3.50;;;;;;;1.42;58.21;94102.38;5113472;28;20203;-74
2021/01/28 10:50:49;;;;;;;4.60;4.07;;;;;;;1.42;57.21;94096.34;5095530;28;20264;-74
2021/01/28 10:53:15;;;;;;;8.60;4.68;;;;;;;1.37;58.21;94099.09;5112865;28;20181;-75
2021/01/28 10:55:40;;;;;;;6.40;3.90;;;;;;;1.37;58.33;94089.34;5113687;28;20185;-74
2021/01/28 10:58:06;;;;;;;6.00;4.43;;;;;;;1.45;58.60;94095.69;5113236;28;20197;-74
2021/01/28 11:00:32;;;;;;;5.97;4.20;;;;;;;1.45;57.83;94098.34;5113466;28;20178;-75
2021/01/28 11:02:57;;;;;;;5.63;3.70;;;;;;;1.62;58.63;94097.59;5113348;28;20176;-75
2021/01/28 11:05:31;;;;;;;6.87;4.03;;;;;;;1.57;57.17;94096.69;5113459;28;20161;-75
2021/01/28 11:07:57;;;;;;;11.27;5.18;;;;;;;1.41;57.02;94094.78;5113188;28;20174;-75
2021/01/28 11:10:23;;;;;;;4.00;3.60;;;;;;;1.36;57.44;94089.66;5113651;28;20568;-75
2021/01/28 11:12:52;;;;;;;10.35;4.57;;;;;;;1.44;58.65;94094.16;5113332;28;20653;-75
2021/01/28 11:15:19;;;;;;;6.22;4.65;;;;;;;1.45;58.47;94096.47;5112925;28;20188;-75
2021/01/28 11:17:44;;;;;;;10.88;6.15;;;;;;;1.16;58.94;94098.88;5113152;28;20209;-75
2021/01/28 11:20:11;;;;;;;12.83;4.50;;;;;;;1.19;58.60;94087.75;5113102;28;20186;-76
2021/01/28 11:22:38;;;;;;;5.35;4.03;;;;;;;0.99;57.62;94094.31;5113001;28;20545;-75
2021/01/28 11:25:06;;;;;;;7.68;4.35;;;;;;;1.03;59.39;94076.88;5112752;28;20174;-76
2021/01/28 11:27:32;;;;;;;8.80;6.30;;;;;;;0.99;60.97;94089.06;5094926;28;20173;-75
2021/01/28 11:29:58;;;;;;;5.97;4.60;;;;;;;1.13;60.54;94084.50;5112868;28;20169;-75
2021/01/28 11:32:23;;;;;;;9.25;4.80;;;;;;;1.19;59.37;94099.06;5112959;28;20265;-75
2021/01/28 11:34:49;;;;;;;5.97;4.17;;;;;;;0.99;59.24;94084.59;5112515;28;20178;-75
2021/01/28 11:37:14;;;;;;;5.20;4.00;;;;;;;1.05;59.33;94088.63;5113202;28;20189;-75
2021/01/28 11:39:42;;;;;;;14.03;5.40;;;;;;;1.21;59.43;94094.25;5113559;28;20689;-75
2021/01/28 11:42:10;;;;;;;5.40;4.40;;;;;;;1.25;59.47;94092.56;5114477;28;20174;-75
2021/01/28 11:44:36;;;;;;;6.10;3.88;;;;;;;1.27;60.18;94100.91;5112895;28;20217;-76
2021/01/28 11:47:01;;;;;;;7.33;4.60;;;;;;;1.17;58.66;94090.69;5112429;28;20197;-76
2021/01/28 11:49:27;;;;;;;8.73;4.90;;;;;;;1.33;59.35;94085.78;5112730;28;20205;-75
2021/01/28 11:51:52;;;;;;;7.13;5.30;;;;;;;1.15;60.60;94090.22;5112303;28;20173;-75